sensor_id;sensor_type;location;lat;lon;timestamp;P1;durP1;ratioP1;P2;durP2;ratioP2
2538;SDS011;1280;49.760;9.664;2023-06-10T00:00:25;18.33;;;13.00;;
2538;SDS011;1280;49.760;9.664;2023-06-10T00:02:53;18.90;;;12.10;;
2538;SDS011;1280;49.760;9.664;2023-06-10T00:05:22;20.33;;;11.17;;
2538;SDS011;1280;49.760;9.664;2023-06-10T00:07:50;16.90;;;12.90;;
2538;SDS011;1280;49.760;9.664;2023-06-10T00:10:21;16.10;;;13.07;;
2538;SDS011;1280;49.760;9.664;2023-06-10T00:12:52;15.50;;;13.10;;
2538;SDS011;1280;49.760;9.664;2023-06-10T00:15:20;16.57;;;12.27;;
2538;SDS011;1280;49.760;9.664;2023-06-10T00:17:49;21.40;;;12.20;;
2538;SDS011;1280;49.760;9.664;2023-06-10T00:20:19;14.17;;;11.77;;
2538;SDS011;1280;49.760;9.664;2023-06-10T00:22:49;13.60;;;11.60;;
2538;SDS011;1280;49.760;9.664;2023-06-10T00:25:17;14.20;;;11.30;;
2538;SDS011;1280;49.760;9.664;2023-06-10T00:27:45;16.70;;;11.80;;
2538;SDS011;1280;49.760;9.664;2023-06-10T00:30:14;15.50;;;12.00;;
2538;SDS011;1280;49.760;9.664;2023-06-10T00:32:42;16.97;;;12.73;;
2538;SDS011;1280;49.760;9.664;2023-06-10T00:35:11;14.20;;;12.07;;
2538;SDS011;1280;49.760;9.664;2023-06-10T00:37:39;14.10;;;11.67;;
2538;SDS011;1280;49.760;9.664;2023-06-10T00:40:12;16.10;;;12.30;;
2538;SDS011;1280;49.760;9.664;2023-06-10T00:42:42;19.60;;;11.83;;
2538;SDS011;1280;49.760;9.664;2023-06-10T00:45:10;14.30;;;11.57;;
2538;SDS011;1280;49.760;9.664;2023-06-10T00:47:38;20.93;;;12.30;;
2538;SDS011;1280;49.760;9.664;2023-06-10T00:50:08;15.73;;;12.63;;
2538;SDS011;1280;49.760;9.664;2023-06-10T00:52:38;16.63;;;11.90;;
2538;SDS011;1280;49.760;9.664;2023-06-10T00:55:07;14.40;;;11.40;;
2538;SDS011;1280;49.760;9.664;2023-06-10T00:57:36;15.20;;;12.57;;
2538;SDS011;1280;49.760;9.664;2023-06-10T01:00:06;17.10;;;12.50;;
2538;SDS011;1280;49.760;9.664;2023-06-10T01:02:36;20.17;;;12.07;;
2538;SDS011;1280;49.760;9.664;2023-06-10T01:05:04;17.20;;;12.80;;
2538;SDS011;1280;49.760;9.664;2023-06-10T01:07:34;13.50;;;11.10;;
2538;SDS011;1280;49.760;9.664;2023-06-10T01:10:10;13.67;;;11.40;;
2538;SDS011;1280;49.760;9.664;2023-06-10T01:12:44;28.20;;;10.70;;
2538;SDS011;1280;49.760;9.664;2023-06-10T01:15:19;15.37;;;10.40;;
2538;SDS011;1280;49.760;9.664;2023-06-10T01:17:56;14.83;;;10.13;;
2538;SDS011;1280;49.760;9.664;2023-06-10T01:20:25;18.17;;;11.93;;
2538;SDS011;1280;49.760;9.664;2023-06-10T01:22:57;17.13;;;11.30;;
2538;SDS011;1280;49.760;9.664;2023-06-10T01:25:26;14.17;;;11.40;;
2538;SDS011;1280;49.760;9.664;2023-06-10T01:27:58;21.87;;;12.30;;
2538;SDS011;1280;49.760;9.664;2023-06-10T01:30:32;19.00;;;11.57;;
2538;SDS011;1280;49.760;9.664;2023-06-10T01:33:08;15.17;;;11.53;;
2538;SDS011;1280;49.760;9.664;2023-06-10T01:35:40;16.90;;;12.87;;
2538;SDS011;1280;49.760;9.664;2023-06-10T01:38:12;16.10;;;11.37;;
2538;SDS011;1280;49.760;9.664;2023-06-10T01:40:43;17.93;;;12.30;;
2538;SDS011;1280;49.760;9.664;2023-06-10T01:43:11;21.70;;;12.67;;
2538;SDS011;1280;49.760;9.664;2023-06-10T01:45:39;20.67;;;12.73;;
2538;SDS011;1280;49.760;9.664;2023-06-10T01:48:07;16.03;;;12.23;;
2538;SDS011;1280;49.760;9.664;2023-06-10T01:50:35;21.23;;;12.70;;
2538;SDS011;1280;49.760;9.664;2023-06-10T01:53:03;18.27;;;12.60;;
2538;SDS011;1280;49.760;9.664;2023-06-10T01:55:34;16.50;;;12.63;;
2538;SDS011;1280;49.760;9.664;2023-06-10T01:58:02;15.10;;;13.33;;
2538;SDS011;1280;49.760;9.664;2023-06-10T02:00:30;16.00;;;11.80;;
2538;SDS011;1280;49.760;9.664;2023-06-10T02:02:58;20.97;;;11.70;;
2538;SDS011;1280;49.760;9.664;2023-06-10T02:05:26;20.07;;;12.67;;
2538;SDS011;1280;49.760;9.664;2023-06-10T02:07:54;21.90;;;12.67;;
2538;SDS011;1280;49.760;9.664;2023-06-10T02:10:22;21.97;;;12.73;;
2538;SDS011;1280;49.760;9.664;2023-06-10T02:12:52;20.90;;;11.37;;
2538;SDS011;1280;49.760;9.664;2023-06-10T02:15:21;20.20;;;13.20;;
2538;SDS011;1280;49.760;9.664;2023-06-10T02:17:49;15.53;;;12.27;;
2538;SDS011;1280;49.760;9.664;2023-06-10T02:20:17;19.23;;;12.57;;
2538;SDS011;1280;49.760;9.664;2023-06-10T02:22:45;18.43;;;12.03;;
2538;SDS011;1280;49.760;9.664;2023-06-10T02:25:13;20.03;;;11.90;;
2538;SDS011;1280;49.760;9.664;2023-06-10T02:27:42;17.03;;;12.33;;
2538;SDS011;1280;49.760;9.664;2023-06-10T02:30:12;19.87;;;12.13;;
2538;SDS011;1280;49.760;9.664;2023-06-10T02:32:41;17.97;;;12.43;;
2538;SDS011;1280;49.760;9.664;2023-06-10T02:35:16;16.87;;;12.43;;
2538;SDS011;1280;49.760;9.664;2023-06-10T02:37:44;17.97;;;13.23;;
2538;SDS011;1280;49.760;9.664;2023-06-10T02:40:12;15.07;;;12.17;;
2538;SDS011;1280;49.760;9.664;2023-06-10T02:42:40;15.27;;;11.17;;
2538;SDS011;1280;49.760;9.664;2023-06-10T02:45:09;24.80;;;12.67;;
2538;SDS011;1280;49.760;9.664;2023-06-10T02:47:41;17.77;;;12.50;;
2538;SDS011;1280;49.760;9.664;2023-06-10T02:50:11;16.17;;;11.40;;
2538;SDS011;1280;49.760;9.664;2023-06-10T02:52:55;16.43;;;13.10;;
2538;SDS011;1280;49.760;9.664;2023-06-10T02:55:23;16.93;;;12.40;;
2538;SDS011;1280;49.760;9.664;2023-06-10T02:57:57;18.83;;;12.87;;
2538;SDS011;1280;49.760;9.664;2023-06-10T03:00:27;17.13;;;12.53;;
2538;SDS011;1280;49.760;9.664;2023-06-10T03:02:56;14.83;;;10.97;;
2538;SDS011;1280;49.760;9.664;2023-06-10T03:05:30;14.10;;;11.40;;
2538;SDS011;1280;49.760;9.664;2023-06-10T03:08:02;14.67;;;11.93;;
2538;SDS011;1280;49.760;9.664;2023-06-10T03:10:32;23.10;;;12.57;;
2538;SDS011;1280;49.760;9.664;2023-06-10T03:13:02;17.70;;;12.13;;
2538;SDS011;1280;49.760;9.664;2023-06-10T03:15:30;17.73;;;12.67;;
2538;SDS011;1280;49.760;9.664;2023-06-10T03:18:05;17.97;;;12.37;;
2538;SDS011;1280;49.760;9.664;2023-06-10T03:20:36;21.17;;;12.77;;
2538;SDS011;1280;49.760;9.664;2023-06-10T03:23:07;17.83;;;13.23;;
2538;SDS011;1280;49.760;9.664;2023-06-10T03:25:36;16.50;;;11.40;;
2538;SDS011;1280;49.760;9.664;2023-06-10T03:28:04;18.17;;;12.17;;
2538;SDS011;1280;49.760;9.664;2023-06-10T03:30:34;16.03;;;11.80;;
2538;SDS011;1280;49.760;9.664;2023-06-10T03:33:04;16.13;;;10.93;;
2538;SDS011;1280;49.760;9.664;2023-06-10T03:35:32;21.43;;;12.40;;
2538;SDS011;1280;49.760;9.664;2023-06-10T03:38:02;14.20;;;12.13;;
2538;SDS011;1280;49.760;9.664;2023-06-10T03:40:30;16.73;;;12.40;;
2538;SDS011;1280;49.760;9.664;2023-06-10T03:43:00;16.50;;;11.83;;
2538;SDS011;1280;49.760;9.664;2023-06-10T03:45:29;20.63;;;12.20;;
2538;SDS011;1280;49.760;9.664;2023-06-10T03:47:58;16.13;;;12.20;;
2538;SDS011;1280;49.760;9.664;2023-06-10T03:50:35;18.07;;;12.33;;
2538;SDS011;1280;49.760;9.664;2023-06-10T03:53:03;16.93;;;11.40;;
2538;SDS011;1280;49.760;9.664;2023-06-10T03:55:32;17.30;;;11.43;;
2538;SDS011;1280;49.760;9.664;2023-06-10T03:58:10;19.80;;;11.40;;
2538;SDS011;1280;49.760;9.664;2023-06-10T04:00:39;17.63;;;12.33;;
2538;SDS011;1280;49.760;9.664;2023-06-10T04:03:08;20.90;;;12.00;;
2538;SDS011;1280;49.760;9.664;2023-06-10T04:05:49;18.70;;;12.10;;
2538;SDS011;1280;49.760;9.664;2023-06-10T04:08:17;22.87;;;12.67;;
2538;SDS011;1280;49.760;9.664;2023-06-10T04:10:47;17.20;;;12.97;;
2538;SDS011;1280;49.760;9.664;2023-06-10T04:13:15;18.90;;;12.80;;
2538;SDS011;1280;49.760;9.664;2023-06-10T04:15:50;16.27;;;13.50;;
2538;SDS011;1280;49.760;9.664;2023-06-10T04:18:19;16.67;;;12.90;;
2538;SDS011;1280;49.760;9.664;2023-06-10T04:20:50;18.13;;;14.87;;
2538;SDS011;1280;49.760;9.664;2023-06-10T04:23:18;20.50;;;12.87;;
2538;SDS011;1280;49.760;9.664;2023-06-10T04:25:47;26.00;;;14.17;;
2538;SDS011;1280;49.760;9.664;2023-06-10T04:28:15;16.73;;;11.80;;
2538;SDS011;1280;49.760;9.664;2023-06-10T04:30:45;23.30;;;12.77;;
2538;SDS011;1280;49.760;9.664;2023-06-10T04:33:13;16.50;;;11.87;;
2538;SDS011;1280;49.760;9.664;2023-06-10T04:38:42;18.97;;;13.53;;
2538;SDS011;1280;49.760;9.664;2023-06-10T04:41:10;21.87;;;13.77;;
2538;SDS011;1280;49.760;9.664;2023-06-10T04:43:38;22.57;;;12.80;;
2538;SDS011;1280;49.760;9.664;2023-06-10T04:46:06;16.20;;;11.97;;
2538;SDS011;1280;49.760;9.664;2023-06-10T04:48:35;18.67;;;13.17;;
2538;SDS011;1280;49.760;9.664;2023-06-10T04:51:03;20.93;;;12.60;;
2538;SDS011;1280;49.760;9.664;2023-06-10T04:53:33;23.20;;;12.70;;
2538;SDS011;1280;49.760;9.664;2023-06-10T04:56:01;20.60;;;12.60;;
2538;SDS011;1280;49.760;9.664;2023-06-10T04:58:32;19.97;;;13.53;;
2538;SDS011;1280;49.760;9.664;2023-06-10T05:01:00;19.13;;;13.10;;
2538;SDS011;1280;49.760;9.664;2023-06-10T05:03:29;20.67;;;13.07;;
2538;SDS011;1280;49.760;9.664;2023-06-10T05:05:58;17.77;;;13.30;;
2538;SDS011;1280;49.760;9.664;2023-06-10T05:08:26;19.13;;;13.83;;
2538;SDS011;1280;49.760;9.664;2023-06-10T05:10:55;18.10;;;13.47;;
2538;SDS011;1280;49.760;9.664;2023-06-10T05:13:24;16.20;;;13.60;;
2538;SDS011;1280;49.760;9.664;2023-06-10T05:15:52;18.03;;;13.17;;
2538;SDS011;1280;49.760;9.664;2023-06-10T05:18:20;23.70;;;13.27;;
2538;SDS011;1280;49.760;9.664;2023-06-10T05:20:50;16.30;;;14.13;;
2538;SDS011;1280;49.760;9.664;2023-06-10T05:23:17;17.17;;;13.40;;
2538;SDS011;1280;49.760;9.664;2023-06-10T05:25:45;16.60;;;12.63;;
2538;SDS011;1280;49.760;9.664;2023-06-10T05:28:32;15.03;;;12.40;;
2538;SDS011;1280;49.760;9.664;2023-06-10T05:31:00;13.20;;;11.00;;
2538;SDS011;1280;49.760;9.664;2023-06-10T05:33:29;12.53;;;9.83;;
2538;SDS011;1280;49.760;9.664;2023-06-10T05:35:57;13.27;;;10.10;;
2538;SDS011;1280;49.760;9.664;2023-06-10T05:38:28;12.57;;;9.87;;
2538;SDS011;1280;49.760;9.664;2023-06-10T05:40:56;13.23;;;9.53;;
2538;SDS011;1280;49.760;9.664;2023-06-10T05:43:25;15.03;;;9.90;;
2538;SDS011;1280;49.760;9.664;2023-06-10T05:45:54;13.70;;;10.00;;
2538;SDS011;1280;49.760;9.664;2023-06-10T05:48:22;11.83;;;8.90;;
2538;SDS011;1280;49.760;9.664;2023-06-10T05:50:50;12.13;;;9.80;;
2538;SDS011;1280;49.760;9.664;2023-06-10T05:53:18;11.27;;;8.90;;
2538;SDS011;1280;49.760;9.664;2023-06-10T05:55:46;11.40;;;8.30;;
2538;SDS011;1280;49.760;9.664;2023-06-10T05:58:15;12.57;;;9.37;;
2538;SDS011;1280;49.760;9.664;2023-06-10T06:00:43;13.70;;;10.43;;
2538;SDS011;1280;49.760;9.664;2023-06-10T06:03:12;11.17;;;9.90;;
2538;SDS011;1280;49.760;9.664;2023-06-10T06:05:40;12.10;;;9.53;;
2538;SDS011;1280;49.760;9.664;2023-06-10T06:08:09;14.80;;;8.97;;
2538;SDS011;1280;49.760;9.664;2023-06-10T06:10:37;11.40;;;8.60;;
2538;SDS011;1280;49.760;9.664;2023-06-10T06:13:05;14.77;;;9.70;;
2538;SDS011;1280;49.760;9.664;2023-06-10T06:15:32;10.50;;;9.00;;
2538;SDS011;1280;49.760;9.664;2023-06-10T06:18:00;10.17;;;8.33;;
2538;SDS011;1280;49.760;9.664;2023-06-10T06:20:30;16.13;;;8.90;;
2538;SDS011;1280;49.760;9.664;2023-06-10T06:22:58;11.77;;;9.10;;
2538;SDS011;1280;49.760;9.664;2023-06-10T06:25:26;11.17;;;9.27;;
2538;SDS011;1280;49.760;9.664;2023-06-10T06:27:54;10.90;;;8.43;;
2538;SDS011;1280;49.760;9.664;2023-06-10T06:30:21;10.90;;;8.73;;
2538;SDS011;1280;49.760;9.664;2023-06-10T06:32:49;14.93;;;9.77;;
2538;SDS011;1280;49.760;9.664;2023-06-10T06:35:18;12.53;;;9.23;;
2538;SDS011;1280;49.760;9.664;2023-06-10T06:37:47;15.63;;;10.17;;
2538;SDS011;1280;49.760;9.664;2023-06-10T06:40:21;18.13;;;9.83;;
2538;SDS011;1280;49.760;9.664;2023-06-10T06:42:49;12.40;;;8.87;;
2538;SDS011;1280;49.760;9.664;2023-06-10T06:45:22;17.10;;;8.90;;
2538;SDS011;1280;49.760;9.664;2023-06-10T06:47:50;14.90;;;10.17;;
2538;SDS011;1280;49.760;9.664;2023-06-10T06:50:18;12.80;;;10.60;;
2538;SDS011;1280;49.760;9.664;2023-06-10T06:52:48;14.80;;;9.90;;
2538;SDS011;1280;49.760;9.664;2023-06-10T06:55:15;14.50;;;9.00;;
2538;SDS011;1280;49.760;9.664;2023-06-10T06:57:44;15.77;;;9.77;;
2538;SDS011;1280;49.760;9.664;2023-06-10T07:00:12;13.90;;;10.00;;
2538;SDS011;1280;49.760;9.664;2023-06-10T07:02:40;12.83;;;10.67;;
2538;SDS011;1280;49.760;9.664;2023-06-10T07:05:08;14.30;;;10.10;;
2538;SDS011;1280;49.760;9.664;2023-06-10T07:07:38;12.87;;;10.50;;
2538;SDS011;1280;49.760;9.664;2023-06-10T07:10:08;14.10;;;10.80;;
2538;SDS011;1280;49.760;9.664;2023-06-10T07:12:36;15.70;;;9.77;;
2538;SDS011;1280;49.760;9.664;2023-06-10T07:15:04;14.30;;;10.27;;
2538;SDS011;1280;49.760;9.664;2023-06-10T07:17:33;14.50;;;10.47;;
2538;SDS011;1280;49.760;9.664;2023-06-10T07:20:01;12.40;;;10.37;;
2538;SDS011;1280;49.760;9.664;2023-06-10T07:22:30;14.97;;;10.00;;
2538;SDS011;1280;49.760;9.664;2023-06-10T07:24:58;14.07;;;9.63;;
2538;SDS011;1280;49.760;9.664;2023-06-10T07:27:27;15.83;;;10.53;;
2538;SDS011;1280;49.760;9.664;2023-06-10T07:29:55;14.47;;;9.83;;
2538;SDS011;1280;49.760;9.664;2023-06-10T07:32:23;15.50;;;10.33;;
2538;SDS011;1280;49.760;9.664;2023-06-10T07:34:51;13.27;;;11.13;;
2538;SDS011;1280;49.760;9.664;2023-06-10T07:37:19;11.30;;;10.10;;
2538;SDS011;1280;49.760;9.664;2023-06-10T07:39:47;14.80;;;10.80;;
2538;SDS011;1280;49.760;9.664;2023-06-10T07:42:15;13.37;;;10.47;;
2538;SDS011;1280;49.760;9.664;2023-06-10T07:44:45;13.00;;;9.43;;
2538;SDS011;1280;49.760;9.664;2023-06-10T07:47:12;12.90;;;10.40;;
2538;SDS011;1280;49.760;9.664;2023-06-10T07:49:40;15.40;;;9.90;;
2538;SDS011;1280;49.760;9.664;2023-06-10T07:52:08;15.77;;;10.90;;
2538;SDS011;1280;49.760;9.664;2023-06-10T07:54:36;13.10;;;9.50;;
2538;SDS011;1280;49.760;9.664;2023-06-10T07:57:04;14.63;;;11.47;;
2538;SDS011;1280;49.760;9.664;2023-06-10T07:59:34;19.90;;;10.40;;
2538;SDS011;1280;49.760;9.664;2023-06-10T08:02:04;12.00;;;8.50;;
2538;SDS011;1280;49.760;9.664;2023-06-10T08:04:32;15.40;;;9.10;;
2538;SDS011;1280;49.760;9.664;2023-06-10T08:07:02;14.00;;;8.30;;
2538;SDS011;1280;49.760;9.664;2023-06-10T08:09:30;14.47;;;10.27;;
2538;SDS011;1280;49.760;9.664;2023-06-10T08:11:58;12.27;;;10.00;;
2538;SDS011;1280;49.760;9.664;2023-06-10T08:14:26;11.60;;;9.17;;
2538;SDS011;1280;49.760;9.664;2023-06-10T08:16:54;10.70;;;9.17;;
2538;SDS011;1280;49.760;9.664;2023-06-10T08:19:23;11.43;;;9.20;;
2538;SDS011;1280;49.760;9.664;2023-06-10T08:21:51;10.60;;;8.43;;
2538;SDS011;1280;49.760;9.664;2023-06-10T08:24:19;11.33;;;8.67;;
2538;SDS011;1280;49.760;9.664;2023-06-10T08:26:47;11.00;;;9.10;;
2538;SDS011;1280;49.760;9.664;2023-06-10T08:29:15;13.30;;;9.20;;
2538;SDS011;1280;49.760;9.664;2023-06-10T08:31:45;11.70;;;9.80;;
2538;SDS011;1280;49.760;9.664;2023-06-10T08:34:13;12.73;;;8.70;;
2538;SDS011;1280;49.760;9.664;2023-06-10T08:36:42;11.63;;;8.70;;
2538;SDS011;1280;49.760;9.664;2023-06-10T08:39:11;10.40;;;8.60;;
2538;SDS011;1280;49.760;9.664;2023-06-10T08:41:40;11.03;;;8.77;;
2538;SDS011;1280;49.760;9.664;2023-06-10T08:44:12;11.77;;;8.00;;
2538;SDS011;1280;49.760;9.664;2023-06-10T08:46:46;10.27;;;8.20;;
2538;SDS011;1280;49.760;9.664;2023-06-10T08:49:17;11.40;;;8.80;;
2538;SDS011;1280;49.760;9.664;2023-06-10T08:51:49;13.87;;;7.80;;
2538;SDS011;1280;49.760;9.664;2023-06-10T08:54:20;9.33;;;7.00;;
2538;SDS011;1280;49.760;9.664;2023-06-10T08:56:51;10.77;;;8.80;;
2538;SDS011;1280;49.760;9.664;2023-06-10T08:59:21;14.93;;;8.23;;
2538;SDS011;1280;49.760;9.664;2023-06-10T09:01:49;10.17;;;8.43;;
2538;SDS011;1280;49.760;9.664;2023-06-10T09:04:18;10.50;;;8.37;;
2538;SDS011;1280;49.760;9.664;2023-06-10T09:06:48;10.53;;;7.87;;
2538;SDS011;1280;49.760;9.664;2023-06-10T09:09:17;11.77;;;8.27;;
2538;SDS011;1280;49.760;9.664;2023-06-10T09:11:46;11.60;;;7.80;;
2538;SDS011;1280;49.760;9.664;2023-06-10T09:14:14;9.20;;;6.93;;
2538;SDS011;1280;49.760;9.664;2023-06-10T09:16:43;11.53;;;7.37;;
2538;SDS011;1280;49.760;9.664;2023-06-10T09:19:13;11.93;;;6.97;;
2538;SDS011;1280;49.760;9.664;2023-06-10T09:21:42;13.40;;;7.60;;
2538;SDS011;1280;49.760;9.664;2023-06-10T09:24:12;14.83;;;7.97;;
2538;SDS011;1280;49.760;9.664;2023-06-10T09:26:41;10.70;;;6.80;;
2538;SDS011;1280;49.760;9.664;2023-06-10T09:29:09;9.50;;;6.50;;
2538;SDS011;1280;49.760;9.664;2023-06-10T09:31:38;8.97;;;7.07;;
2538;SDS011;1280;49.760;9.664;2023-06-10T09:34:07;10.63;;;7.00;;
2538;SDS011;1280;49.760;9.664;2023-06-10T09:36:37;12.03;;;7.43;;
2538;SDS011;1280;49.760;9.664;2023-06-10T09:39:12;10.37;;;8.17;;
2538;SDS011;1280;49.760;9.664;2023-06-10T09:41:44;11.00;;;7.13;;
2538;SDS011;1280;49.760;9.664;2023-06-10T09:44:12;10.70;;;6.57;;
2538;SDS011;1280;49.760;9.664;2023-06-10T09:46:42;8.83;;;6.53;;
2538;SDS011;1280;49.760;9.664;2023-06-10T09:49:12;11.30;;;6.37;;
2538;SDS011;1280;49.760;9.664;2023-06-10T09:51:48;9.03;;;6.60;;
2538;SDS011;1280;49.760;9.664;2023-06-10T09:54:20;12.40;;;7.60;;
2538;SDS011;1280;49.760;9.664;2023-06-10T09:56:48;9.83;;;5.80;;
2538;SDS011;1280;49.760;9.664;2023-06-10T09:59:20;9.20;;;6.57;;
2538;SDS011;1280;49.760;9.664;2023-06-10T10:01:56;9.23;;;7.03;;
2538;SDS011;1280;49.760;9.664;2023-06-10T10:04:25;13.00;;;6.50;;
2538;SDS011;1280;49.760;9.664;2023-06-10T10:06:53;9.93;;;6.20;;
2538;SDS011;1280;49.760;9.664;2023-06-10T10:09:22;8.43;;;5.87;;
2538;SDS011;1280;49.760;9.664;2023-06-10T10:11:50;9.57;;;5.70;;
2538;SDS011;1280;49.760;9.664;2023-06-10T10:14:21;8.97;;;5.73;;
2538;SDS011;1280;49.760;9.664;2023-06-10T10:16:57;7.93;;;6.07;;
2538;SDS011;1280;49.760;9.664;2023-06-10T10:19:31;9.97;;;5.70;;
2538;SDS011;1280;49.760;9.664;2023-06-10T10:22:06;7.07;;;5.00;;
2538;SDS011;1280;49.760;9.664;2023-06-10T10:24:45;9.87;;;5.30;;
2538;SDS011;1280;49.760;9.664;2023-06-10T10:27:17;9.47;;;4.90;;
2538;SDS011;1280;49.760;9.664;2023-06-10T10:29:48;10.57;;;5.80;;
2538;SDS011;1280;49.760;9.664;2023-06-10T10:32:25;8.20;;;5.27;;
2538;SDS011;1280;49.760;9.664;2023-06-10T10:34:59;11.97;;;5.30;;
2538;SDS011;1280;49.760;9.664;2023-06-10T10:37:35;9.57;;;5.37;;
2538;SDS011;1280;49.760;9.664;2023-06-10T10:40:06;6.60;;;4.60;;
2538;SDS011;1280;49.760;9.664;2023-06-10T10:42:35;9.83;;;5.20;;
2538;SDS011;1280;49.760;9.664;2023-06-10T10:45:05;6.47;;;4.30;;
2538;SDS011;1280;49.760;9.664;2023-06-10T10:47:35;8.30;;;4.83;;
2538;SDS011;1280;49.760;9.664;2023-06-10T10:50:12;10.30;;;5.00;;
2538;SDS011;1280;49.760;9.664;2023-06-10T10:52:52;7.40;;;4.97;;
2538;SDS011;1280;49.760;9.664;2023-06-10T10:55:23;8.53;;;4.47;;
2538;SDS011;1280;49.760;9.664;2023-06-10T10:57:57;8.60;;;4.60;;
2538;SDS011;1280;49.760;9.664;2023-06-10T11:00:27;8.97;;;5.63;;
2538;SDS011;1280;49.760;9.664;2023-06-10T11:03:04;10.60;;;5.57;;
2538;SDS011;1280;49.760;9.664;2023-06-10T11:05:38;10.87;;;5.40;;
2538;SDS011;1280;49.760;9.664;2023-06-10T11:08:08;8.70;;;4.93;;
2538;SDS011;1280;49.760;9.664;2023-06-10T11:10:38;9.93;;;4.97;;
2538;SDS011;1280;49.760;9.664;2023-06-10T11:13:07;8.93;;;5.07;;
2538;SDS011;1280;49.760;9.664;2023-06-10T11:15:42;8.97;;;4.97;;
2538;SDS011;1280;49.760;9.664;2023-06-10T11:18:19;7.47;;;5.33;;
2538;SDS011;1280;49.760;9.664;2023-06-10T11:20:56;8.70;;;5.07;;
2538;SDS011;1280;49.760;9.664;2023-06-10T11:23:29;7.23;;;4.93;;
2538;SDS011;1280;49.760;9.664;2023-06-10T11:26:13;7.67;;;5.10;;
2538;SDS011;1280;49.760;9.664;2023-06-10T11:29:00;8.07;;;4.87;;
2538;SDS011;1280;49.760;9.664;2023-06-10T11:31:30;7.57;;;5.03;;
2538;SDS011;1280;49.760;9.664;2023-06-10T11:34:00;9.33;;;4.97;;
2538;SDS011;1280;49.760;9.664;2023-06-10T11:36:31;8.23;;;5.00;;
2538;SDS011;1280;49.760;9.664;2023-06-10T11:39:02;7.80;;;5.23;;
2538;SDS011;1280;49.760;9.664;2023-06-10T11:41:33;8.73;;;5.23;;
2538;SDS011;1280;49.760;9.664;2023-06-10T11:44:03;8.47;;;5.00;;
2538;SDS011;1280;49.760;9.664;2023-06-10T11:46:33;9.10;;;5.90;;
2538;SDS011;1280;49.760;9.664;2023-06-10T11:49:02;9.20;;;5.57;;
2538;SDS011;1280;49.760;9.664;2023-06-10T11:51:32;10.90;;;5.97;;
2538;SDS011;1280;49.760;9.664;2023-06-10T11:54:02;9.53;;;4.50;;
2538;SDS011;1280;49.760;9.664;2023-06-10T11:56:32;8.43;;;4.63;;
2538;SDS011;1280;49.760;9.664;2023-06-10T11:59:01;8.23;;;5.40;;
2538;SDS011;1280;49.760;9.664;2023-06-10T12:01:32;11.07;;;5.40;;
2538;SDS011;1280;49.760;9.664;2023-06-10T12:04:02;10.93;;;5.13;;
2538;SDS011;1280;49.760;9.664;2023-06-10T12:06:38;7.37;;;4.80;;
2538;SDS011;1280;49.760;9.664;2023-06-10T12:09:12;8.63;;;5.50;;
2538;SDS011;1280;49.760;9.664;2023-06-10T12:11:55;6.80;;;4.83;;
2538;SDS011;1280;49.760;9.664;2023-06-10T12:17:17;10.90;;;5.73;;
2538;SDS011;1280;49.760;9.664;2023-06-10T12:19:45;10.40;;;5.73;;
2538;SDS011;1280;49.760;9.664;2023-06-10T12:22:14;8.73;;;5.27;;
2538;SDS011;1280;49.760;9.664;2023-06-10T12:24:45;7.37;;;4.60;;
2538;SDS011;1280;49.760;9.664;2023-06-10T12:27:27;8.77;;;4.77;;
2538;SDS011;1280;49.760;9.664;2023-06-10T12:29:56;8.20;;;5.20;;
2538;SDS011;1280;49.760;9.664;2023-06-10T12:32:38;7.03;;;4.73;;
2538;SDS011;1280;49.760;9.664;2023-06-10T12:35:08;8.60;;;5.10;;
2538;SDS011;1280;49.760;9.664;2023-06-10T12:37:39;9.90;;;5.23;;
2538;SDS011;1280;49.760;9.664;2023-06-10T12:40:09;8.70;;;5.17;;
2538;SDS011;1280;49.760;9.664;2023-06-10T12:42:39;8.97;;;5.10;;
2538;SDS011;1280;49.760;9.664;2023-06-10T12:45:12;8.37;;;5.30;;
2538;SDS011;1280;49.760;9.664;2023-06-10T12:47:40;8.60;;;5.73;;
2538;SDS011;1280;49.760;9.664;2023-06-10T12:50:09;8.90;;;4.50;;
2538;SDS011;1280;49.760;9.664;2023-06-10T12:52:38;9.63;;;5.33;;
2538;SDS011;1280;49.760;9.664;2023-06-10T12:55:08;7.97;;;5.30;;
2538;SDS011;1280;49.760;9.664;2023-06-10T12:57:37;9.20;;;5.00;;
2538;SDS011;1280;49.760;9.664;2023-06-10T13:00:16;7.53;;;5.27;;
2538;SDS011;1280;49.760;9.664;2023-06-10T13:02:45;8.43;;;5.97;;
2538;SDS011;1280;49.760;9.664;2023-06-10T13:05:14;8.07;;;4.87;;
2538;SDS011;1280;49.760;9.664;2023-06-10T13:07:43;9.17;;;5.07;;
2538;SDS011;1280;49.760;9.664;2023-06-10T13:10:11;9.57;;;5.10;;
2538;SDS011;1280;49.760;9.664;2023-06-10T13:12:39;7.00;;;5.00;;
2538;SDS011;1280;49.760;9.664;2023-06-10T13:15:15;6.90;;;5.03;;
2538;SDS011;1280;49.760;9.664;2023-06-10T13:17:44;7.27;;;5.00;;
2538;SDS011;1280;49.760;9.664;2023-06-10T13:20:15;9.40;;;4.87;;
2538;SDS011;1280;49.760;9.664;2023-06-10T13:22:44;11.13;;;4.77;;
2538;SDS011;1280;49.760;9.664;2023-06-10T13:25:13;6.20;;;4.20;;
2538;SDS011;1280;49.760;9.664;2023-06-10T13:27:42;11.03;;;5.27;;
2538;SDS011;1280;49.760;9.664;2023-06-10T13:38:16;11.07;;;5.53;;
2538;SDS011;1280;49.760;9.664;2023-06-10T13:40:44;7.43;;;4.30;;
2538;SDS011;1280;49.760;9.664;2023-06-10T13:43:12;6.60;;;4.10;;
2538;SDS011;1280;49.760;9.664;2023-06-10T13:45:41;9.13;;;4.40;;
2538;SDS011;1280;49.760;9.664;2023-06-10T13:48:10;9.47;;;4.43;;
2538;SDS011;1280;49.760;9.664;2023-06-10T13:50:39;7.73;;;4.80;;
2538;SDS011;1280;49.760;9.664;2023-06-10T13:53:12;9.60;;;5.30;;
2538;SDS011;1280;49.760;9.664;2023-06-10T13:55:42;7.07;;;4.80;;
2538;SDS011;1280;49.760;9.664;2023-06-10T13:58:10;7.87;;;4.83;;
2538;SDS011;1280;49.760;9.664;2023-06-10T14:00:38;8.60;;;5.33;;
2538;SDS011;1280;49.760;9.664;2023-06-10T14:03:06;7.60;;;5.10;;
2538;SDS011;1280;49.760;9.664;2023-06-10T14:05:35;9.67;;;5.50;;
2538;SDS011;1280;49.760;9.664;2023-06-10T14:08:04;7.10;;;5.00;;
2538;SDS011;1280;49.760;9.664;2023-06-10T14:10:33;9.07;;;5.20;;
2538;SDS011;1280;49.760;9.664;2023-06-10T14:13:03;9.13;;;5.37;;
2538;SDS011;1280;49.760;9.664;2023-06-10T14:15:32;7.87;;;5.70;;
2538;SDS011;1280;49.760;9.664;2023-06-10T14:18:01;7.20;;;5.37;;
2538;SDS011;1280;49.760;9.664;2023-06-10T14:20:29;7.47;;;5.23;;
2538;SDS011;1280;49.760;9.664;2023-06-10T14:22:58;6.87;;;5.07;;
2538;SDS011;1280;49.760;9.664;2023-06-10T14:25:26;8.80;;;4.93;;
2538;SDS011;1280;49.760;9.664;2023-06-10T14:27:54;7.60;;;4.50;;
2538;SDS011;1280;49.760;9.664;2023-06-10T14:30:23;7.73;;;4.87;;
2538;SDS011;1280;49.760;9.664;2023-06-10T14:32:51;7.33;;;5.30;;
2538;SDS011;1280;49.760;9.664;2023-06-10T14:35:19;7.90;;;5.10;;
2538;SDS011;1280;49.760;9.664;2023-06-10T14:37:47;8.30;;;4.60;;
2538;SDS011;1280;49.760;9.664;2023-06-10T14:40:15;7.93;;;5.20;;
2538;SDS011;1280;49.760;9.664;2023-06-10T14:42:43;7.50;;;5.30;;
2538;SDS011;1280;49.760;9.664;2023-06-10T14:45:11;8.60;;;5.33;;
2538;SDS011;1280;49.760;9.664;2023-06-10T14:47:42;6.43;;;4.77;;
2538;SDS011;1280;49.760;9.664;2023-06-10T14:50:10;7.33;;;5.13;;
2538;SDS011;1280;49.760;9.664;2023-06-10T14:52:38;8.10;;;5.53;;
2538;SDS011;1280;49.760;9.664;2023-06-10T14:55:06;6.43;;;4.70;;
2538;SDS011;1280;49.760;9.664;2023-06-10T14:57:35;7.43;;;5.20;;
2538;SDS011;1280;49.760;9.664;2023-06-10T15:00:03;14.90;;;5.40;;
2538;SDS011;1280;49.760;9.664;2023-06-10T15:02:32;10.87;;;5.80;;
2538;SDS011;1280;49.760;9.664;2023-06-10T15:05:02;6.80;;;5.30;;
2538;SDS011;1280;49.760;9.664;2023-06-10T15:07:31;7.10;;;5.10;;
2538;SDS011;1280;49.760;9.664;2023-06-10T15:09:59;8.77;;;4.57;;
2538;SDS011;1280;49.760;9.664;2023-06-10T15:12:27;7.70;;;4.30;;
2538;SDS011;1280;49.760;9.664;2023-06-10T15:14:55;6.50;;;4.30;;
2538;SDS011;1280;49.760;9.664;2023-06-10T15:17:23;7.27;;;4.63;;
2538;SDS011;1280;49.760;9.664;2023-06-10T15:19:51;9.73;;;5.57;;
2538;SDS011;1280;49.760;9.664;2023-06-10T15:22:20;8.90;;;4.70;;
2538;SDS011;1280;49.760;9.664;2023-06-10T15:24:48;8.93;;;5.83;;
2538;SDS011;1280;49.760;9.664;2023-06-10T15:27:16;16.70;;;9.00;;
2538;SDS011;1280;49.760;9.664;2023-06-10T15:29:44;10.57;;;6.43;;